Terminal Aerodrome Forecast
Issued by NWS Glasgow, MT

Home | Current Version | Previous Version | Text Only | Print | Product List | Glossary On
Versions: 1 2 3 4 5 6 7 8 9 10 11 12 13 14 15 16
000
FTUS45 KGGW 240525
TAFGGW
TAF
KGGW 240525Z 2406/2506 11013KT 6SM -DZ OVC005
     FM240700 11008KT 5SM BR VCSH OVC005
     FM241200 VRB05KT P6SM SCT010 OVC024
     FM250100 06012KT P6SM BKN040=

USA.gov is the U.S. government's official web portal to all federal, state and local government web resources and services.